sensor_id;sensor_type;location;lat;lon;timestamp;temperature;humidity
18281;DHT22;9266;51.132;17.062;2023-06-04T00:02:26;10.20;1.00
18281;DHT22;9266;51.132;17.062;2023-06-04T00:04:54;10.10;1.00
18281;DHT22;9266;51.132;17.062;2023-06-04T00:07:21;10.00;1.00
18281;DHT22;9266;51.132;17.062;2023-06-04T00:09:48;9.90;1.00
18281;DHT22;9266;51.132;17.062;2023-06-04T00:12:15;9.70;1.00
18281;DHT22;9266;51.132;17.062;2023-06-04T00:14:42;9.60;1.00
18281;DHT22;9266;51.132;17.062;2023-06-04T00:17:09;9.60;1.00
18281;DHT22;9266;51.132;17.062;2023-06-04T00:19:38;9.60;1.00
18281;DHT22;9266;51.132;17.062;2023-06-04T00:22:07;9.70;1.00
18281;DHT22;9266;51.132;17.062;2023-06-04T00:24:35;9.80;1.00
18281;DHT22;9266;51.132;17.062;2023-06-04T00:27:02;9.80;1.00
18281;DHT22;9266;51.132;17.062;2023-06-04T00:29:29;9.70;1.00
18281;DHT22;9266;51.132;17.062;2023-06-04T00:31:56;9.50;1.00
18281;DHT22;9266;51.132;17.062;2023-06-04T00:34:23;9.50;1.00
18281;DHT22;9266;51.132;17.062;2023-06-04T00:36:50;9.60;1.00
18281;DHT22;9266;51.132;17.062;2023-06-04T00:39:18;9.60;1.00
18281;DHT22;9266;51.132;17.062;2023-06-04T00:41:46;9.50;52.40
18281;DHT22;9266;51.132;17.062;2023-06-04T00:44:13;9.50;99.50
18281;DHT22;9266;51.132;17.062;2023-06-04T00:46:40;9.50;99.90
18281;DHT22;9266;51.132;17.062;2023-06-04T00:49:11;9.50;99.90
18281;DHT22;9266;51.132;17.062;2023-06-04T00:51:38;9.50;99.90
18281;DHT22;9266;51.132;17.062;2023-06-04T00:54:06;9.50;99.90
18281;DHT22;9266;51.132;17.062;2023-06-04T00:56:35;9.50;99.90
18281;DHT22;9266;51.132;17.062;2023-06-04T00:59:03;9.50;99.90
18281;DHT22;9266;51.132;17.062;2023-06-04T01:01:36;9.50;99.90
18281;DHT22;9266;51.132;17.062;2023-06-04T01:04:18;9.50;99.90
18281;DHT22;9266;51.132;17.062;2023-06-04T01:06:50;9.50;99.90
18281;DHT22;9266;51.132;17.062;2023-06-04T01:09:18;9.40;99.90
18281;DHT22;9266;51.132;17.062;2023-06-04T01:11:46;9.30;99.90
18281;DHT22;9266;51.132;17.062;2023-06-04T01:14:13;9.20;99.90
18281;DHT22;9266;51.132;17.062;2023-06-04T01:16:47;9.20;99.90
18281;DHT22;9266;51.132;17.062;2023-06-04T01:19:43;9.20;99.90
18281;DHT22;9266;51.132;17.062;2023-06-04T01:22:20;9.20;99.90
18281;DHT22;9266;51.132;17.062;2023-06-04T01:25:00;9.00;1.00
18281;DHT22;9266;51.132;17.062;2023-06-04T01:27:30;9.00;1.00
18281;DHT22;9266;51.132;17.062;2023-06-04T01:30:01;9.00;1.00
18281;DHT22;9266;51.132;17.062;2023-06-04T01:32:30;9.00;1.00
18281;DHT22;9266;51.132;17.062;2023-06-04T01:34:57;9.00;1.00
18281;DHT22;9266;51.132;17.062;2023-06-04T01:37:25;9.00;1.00
18281;DHT22;9266;51.132;17.062;2023-06-04T01:39:52;9.00;1.00
18281;DHT22;9266;51.132;17.062;2023-06-04T01:42:19;9.00;1.00
18281;DHT22;9266;51.132;17.062;2023-06-04T01:44:48;9.00;1.00
18281;DHT22;9266;51.132;17.062;2023-06-04T01:47:15;9.00;1.00
18281;DHT22;9266;51.132;17.062;2023-06-04T01:49:42;9.00;1.00
18281;DHT22;9266;51.132;17.062;2023-06-04T01:52:09;8.90;1.00
18281;DHT22;9266;51.132;17.062;2023-06-04T01:54:36;8.90;1.00
18281;DHT22;9266;51.132;17.062;2023-06-04T01:57:04;8.80;1.00
18281;DHT22;9266;51.132;17.062;2023-06-04T01:59:32;8.80;1.00
18281;DHT22;9266;51.132;17.062;2023-06-04T02:02:00;8.70;1.00
18281;DHT22;9266;51.132;17.062;2023-06-04T02:04:28;8.70;1.00
18281;DHT22;9266;51.132;17.062;2023-06-04T02:06:55;8.70;1.00
18281;DHT22;9266;51.132;17.062;2023-06-04T02:09:25;8.80;1.00
18281;DHT22;9266;51.132;17.062;2023-06-04T02:11:52;8.70;1.00
18281;DHT22;9266;51.132;17.062;2023-06-04T02:14:19;8.70;1.00
18281;DHT22;9266;51.132;17.062;2023-06-04T02:16:46;8.60;1.00
18281;DHT22;9266;51.132;17.062;2023-06-04T02:19:16;8.60;1.00
18281;DHT22;9266;51.132;17.062;2023-06-04T02:21:44;8.60;1.00
18281;DHT22;9266;51.132;17.062;2023-06-04T02:24:12;8.60;1.00
18281;DHT22;9266;51.132;17.062;2023-06-04T02:26:39;8.50;27.50
18281;DHT22;9266;51.132;17.062;2023-06-04T02:29:06;8.50;99.90
18281;DHT22;9266;51.132;17.062;2023-06-04T02:31:33;8.40;99.90
18281;DHT22;9266;51.132;17.062;2023-06-04T02:34:00;8.40;99.90
18281;DHT22;9266;51.132;17.062;2023-06-04T02:36:29;8.50;99.90
18281;DHT22;9266;51.132;17.062;2023-06-04T02:38:56;8.50;99.90
18281;DHT22;9266;51.132;17.062;2023-06-04T02:41:23;8.50;99.90
18281;DHT22;9266;51.132;17.062;2023-06-04T02:43:50;8.50;99.90
18281;DHT22;9266;51.132;17.062;2023-06-04T02:46:17;8.50;99.90
18281;DHT22;9266;51.132;17.062;2023-06-04T02:48:44;8.50;99.90
18281;DHT22;9266;51.132;17.062;2023-06-04T02:51:11;8.40;99.90
18281;DHT22;9266;51.132;17.062;2023-06-04T02:53:40;8.40;99.90
18281;DHT22;9266;51.132;17.062;2023-06-04T02:56:07;8.40;99.90
18281;DHT22;9266;51.132;17.062;2023-06-04T02:58:34;8.40;99.90
18281;DHT22;9266;51.132;17.062;2023-06-04T03:01:05;8.50;99.90
18281;DHT22;9266;51.132;17.062;2023-06-04T03:03:32;8.50;99.90
18281;DHT22;9266;51.132;17.062;2023-06-04T03:05:59;8.70;99.90
18281;DHT22;9266;51.132;17.062;2023-06-04T03:08:28;8.90;99.90
18281;DHT22;9266;51.132;17.062;2023-06-04T03:10:56;9.20;12.60
18281;DHT22;9266;51.132;17.062;2023-06-04T03:13:23;9.40;1.00
18281;DHT22;9266;51.132;17.062;2023-06-04T03:15:50;9.70;1.00
18281;DHT22;9266;51.132;17.062;2023-06-04T03:18:21;10.10;1.00
18281;DHT22;9266;51.132;17.062;2023-06-04T03:20:48;10.70;1.00
18281;DHT22;9266;51.132;17.062;2023-06-04T03:23:15;11.00;99.90
18281;DHT22;9266;51.132;17.062;2023-06-04T03:25:42;11.40;99.90
18281;DHT22;9266;51.132;17.062;2023-06-04T03:28:10;12.00;99.90
18281;DHT22;9266;51.132;17.062;2023-06-04T03:30:39;12.40;99.90
18281;DHT22;9266;51.132;17.062;2023-06-04T03:33:07;12.80;99.90
18281;DHT22;9266;51.132;17.062;2023-06-04T03:35:34;13.00;99.90
18281;DHT22;9266;51.132;17.062;2023-06-04T03:38:01;13.30;38.90
18281;DHT22;9266;51.132;17.062;2023-06-04T03:40:28;13.70;1.00
18281;DHT22;9266;51.132;17.062;2023-06-04T03:42:55;13.60;1.00
18281;DHT22;9266;51.132;17.062;2023-06-04T03:45:23;13.70;1.00
18281;DHT22;9266;51.132;17.062;2023-06-04T03:47:50;13.90;1.00
18281;DHT22;9266;51.132;17.062;2023-06-04T03:50:18;14.40;1.00
18281;DHT22;9266;51.132;17.062;2023-06-04T03:52:45;14.70;1.00
18281;DHT22;9266;51.132;17.062;2023-06-04T03:55:11;15.30;1.00
18281;DHT22;9266;51.132;17.062;2023-06-04T03:57:39;15.60;1.00
18281;DHT22;9266;51.132;17.062;2023-06-04T04:00:07;15.50;1.00
18281;DHT22;9266;51.132;17.062;2023-06-04T04:02:39;15.80;1.00
18281;DHT22;9266;51.132;17.062;2023-06-04T04:05:07;16.10;1.00
18281;DHT22;9266;51.132;17.062;2023-06-04T04:07:34;16.50;1.00
18281;DHT22;9266;51.132;17.062;2023-06-04T04:10:02;16.70;1.00
18281;DHT22;9266;51.132;17.062;2023-06-04T04:12:30;16.90;1.00
18281;DHT22;9266;51.132;17.062;2023-06-04T04:14:57;17.20;1.00
18281;DHT22;9266;51.132;17.062;2023-06-04T04:17:25;16.90;1.00
18281;DHT22;9266;51.132;17.062;2023-06-04T04:19:53;17.20;1.00
18281;DHT22;9266;51.132;17.062;2023-06-04T04:22:21;17.80;1.00
18281;DHT22;9266;51.132;17.062;2023-06-04T04:24:48;17.20;1.00
18281;DHT22;9266;51.132;17.062;2023-06-04T04:27:15;18.10;1.00
18281;DHT22;9266;51.132;17.062;2023-06-04T04:29:42;18.90;1.00
18281;DHT22;9266;51.132;17.062;2023-06-04T04:32:10;19.10;1.00
18281;DHT22;9266;51.132;17.062;2023-06-04T04:34:37;18.90;1.00
18281;DHT22;9266;51.132;17.062;2023-06-04T04:37:06;19.30;1.00
18281;DHT22;9266;51.132;17.062;2023-06-04T04:39:35;19.50;1.00
18281;DHT22;9266;51.132;17.062;2023-06-04T04:42:03;20.10;1.00
18281;DHT22;9266;51.132;17.062;2023-06-04T04:44:30;19.40;1.00
18281;DHT22;9266;51.132;17.062;2023-06-04T04:46:57;19.40;1.00
18281;DHT22;9266;51.132;17.062;2023-06-04T04:49:24;19.40;1.00
18281;DHT22;9266;51.132;17.062;2023-06-04T04:51:51;20.30;1.00
18281;DHT22;9266;51.132;17.062;2023-06-04T04:54:19;20.40;1.00
18281;DHT22;9266;51.132;17.062;2023-06-04T04:56:46;19.50;1.00
18281;DHT22;9266;51.132;17.062;2023-06-04T04:59:13;20.00;1.00
18281;DHT22;9266;51.132;17.062;2023-06-04T05:01:40;19.70;1.00
18281;DHT22;9266;51.132;17.062;2023-06-04T05:04:07;20.40;1.00
18281;DHT22;9266;51.132;17.062;2023-06-04T05:06:34;20.90;1.00
18281;DHT22;9266;51.132;17.062;2023-06-04T05:09:01;20.00;1.00
18281;DHT22;9266;51.132;17.062;2023-06-04T05:11:30;20.30;1.00
18281;DHT22;9266;51.132;17.062;2023-06-04T05:13:57;19.50;1.00
18281;DHT22;9266;51.132;17.062;2023-06-04T05:16:24;19.70;1.00
18281;DHT22;9266;51.132;17.062;2023-06-04T05:18:53;21.10;1.00
18281;DHT22;9266;51.132;17.062;2023-06-04T05:21:22;20.10;1.00
18281;DHT22;9266;51.132;17.062;2023-06-04T05:23:49;20.70;1.00
18281;DHT22;9266;51.132;17.062;2023-06-04T05:26:16;19.60;1.00
18281;DHT22;9266;51.132;17.062;2023-06-04T05:28:45;19.80;1.00
18281;DHT22;9266;51.132;17.062;2023-06-04T05:31:12;20.80;1.00
18281;DHT22;9266;51.132;17.062;2023-06-04T05:33:38;19.80;1.00
18281;DHT22;9266;51.132;17.062;2023-06-04T05:36:05;21.60;1.00
18281;DHT22;9266;51.132;17.062;2023-06-04T05:38:32;21.60;1.00
18281;DHT22;9266;51.132;17.062;2023-06-04T05:41:01;22.60;1.00
18281;DHT22;9266;51.132;17.062;2023-06-04T05:43:28;21.40;1.00
18281;DHT22;9266;51.132;17.062;2023-06-04T05:45:56;21.50;1.00
18281;DHT22;9266;51.132;17.062;2023-06-04T05:48:23;21.10;1.00
18281;DHT22;9266;51.132;17.062;2023-06-04T05:50:50;21.20;1.00
18281;DHT22;9266;51.132;17.062;2023-06-04T05:53:17;21.40;1.00
18281;DHT22;9266;51.132;17.062;2023-06-04T05:55:44;22.10;1.00
18281;DHT22;9266;51.132;17.062;2023-06-04T05:58:11;22.60;1.00
18281;DHT22;9266;51.132;17.062;2023-06-04T06:00:38;23.20;1.00
18281;DHT22;9266;51.132;17.062;2023-06-04T06:03:07;23.40;1.00
18281;DHT22;9266;51.132;17.062;2023-06-04T06:05:35;24.20;1.00
18281;DHT22;9266;51.132;17.062;2023-06-04T06:08:02;23.60;1.00
18281;DHT22;9266;51.132;17.062;2023-06-04T06:10:29;23.40;1.00
18281;DHT22;9266;51.132;17.062;2023-06-04T06:12:56;23.90;1.00
18281;DHT22;9266;51.132;17.062;2023-06-04T06:15:23;23.70;1.00
18281;DHT22;9266;51.132;17.062;2023-06-04T06:17:50;24.30;1.00
18281;DHT22;9266;51.132;17.062;2023-06-04T06:20:19;23.20;99.90
18281;DHT22;9266;51.132;17.062;2023-06-04T06:22:48;24.00;99.90
18281;DHT22;9266;51.132;17.062;2023-06-04T06:25:15;22.90;99.90
18281;DHT22;9266;51.132;17.062;2023-06-04T06:27:42;23.10;99.90
18281;DHT22;9266;51.132;17.062;2023-06-04T06:30:09;22.90;99.90
18281;DHT22;9266;51.132;17.062;2023-06-04T06:32:37;22.20;99.90
18281;DHT22;9266;51.132;17.062;2023-06-04T06:35:05;22.50;99.90
18281;DHT22;9266;51.132;17.062;2023-06-04T06:37:34;22.40;99.90
18281;DHT22;9266;51.132;17.062;2023-06-04T06:40:01;22.10;99.90
18281;DHT22;9266;51.132;17.062;2023-06-04T06:42:32;22.60;99.90
18281;DHT22;9266;51.132;17.062;2023-06-04T06:44:59;23.70;99.90
18281;DHT22;9266;51.132;17.062;2023-06-04T06:47:26;24.40;1.00
18281;DHT22;9266;51.132;17.062;2023-06-04T06:49:53;24.60;1.00
18281;DHT22;9266;51.132;17.062;2023-06-04T06:52:21;25.70;1.00
18281;DHT22;9266;51.132;17.062;2023-06-04T06:54:49;25.10;99.90
18281;DHT22;9266;51.132;17.062;2023-06-04T06:57:16;23.20;99.90
18281;DHT22;9266;51.132;17.062;2023-06-04T06:59:43;23.20;99.90
18281;DHT22;9266;51.132;17.062;2023-06-04T07:02:10;23.20;99.90
18281;DHT22;9266;51.132;17.062;2023-06-04T07:04:37;23.30;99.90
18281;DHT22;9266;51.132;17.062;2023-06-04T07:07:04;23.80;99.90
18281;DHT22;9266;51.132;17.062;2023-06-04T07:09:31;23.20;99.90
18281;DHT22;9266;51.132;17.062;2023-06-04T07:11:59;24.30;99.90
18281;DHT22;9266;51.132;17.062;2023-06-04T07:14:26;25.20;99.90
18281;DHT22;9266;51.132;17.062;2023-06-04T07:16:53;25.80;99.90
18281;DHT22;9266;51.132;17.062;2023-06-04T07:19:20;23.90;99.90
18281;DHT22;9266;51.132;17.062;2023-06-04T07:21:47;23.40;99.90
18281;DHT22;9266;51.132;17.062;2023-06-04T07:24:14;22.70;99.90
18281;DHT22;9266;51.132;17.062;2023-06-04T07:26:41;24.10;99.90
18281;DHT22;9266;51.132;17.062;2023-06-04T07:29:09;25.30;99.90
18281;DHT22;9266;51.132;17.062;2023-06-04T07:31:36;24.00;99.90
18281;DHT22;9266;51.132;17.062;2023-06-04T07:34:05;23.70;99.90
18281;DHT22;9266;51.132;17.062;2023-06-04T07:36:31;24.70;99.90
18281;DHT22;9266;51.132;17.062;2023-06-04T07:38:59;25.50;99.90
18281;DHT22;9266;51.132;17.062;2023-06-04T07:41:26;24.80;99.90
18281;DHT22;9266;51.132;17.062;2023-06-04T07:43:53;25.50;99.90
18281;DHT22;9266;51.132;17.062;2023-06-04T07:46:22;25.50;99.90
18281;DHT22;9266;51.132;17.062;2023-06-04T07:48:48;25.70;99.90
18281;DHT22;9266;51.132;17.062;2023-06-04T07:51:15;25.70;99.90
18281;DHT22;9266;51.132;17.062;2023-06-04T07:53:44;24.30;99.90
18281;DHT22;9266;51.132;17.062;2023-06-04T07:56:11;24.60;99.90
18281;DHT22;9266;51.132;17.062;2023-06-04T07:58:38;25.70;99.90
18281;DHT22;9266;51.132;17.062;2023-06-04T08:01:05;24.60;99.90
18281;DHT22;9266;51.132;17.062;2023-06-04T08:03:35;24.80;99.90
18281;DHT22;9266;51.132;17.062;2023-06-04T08:06:02;25.50;99.90
18281;DHT22;9266;51.132;17.062;2023-06-04T08:08:30;25.30;99.90
18281;DHT22;9266;51.132;17.062;2023-06-04T08:10:57;25.40;99.90
18281;DHT22;9266;51.132;17.062;2023-06-04T08:13:24;24.30;99.90
18281;DHT22;9266;51.132;17.062;2023-06-04T08:15:51;23.90;99.90
18281;DHT22;9266;51.132;17.062;2023-06-04T08:18:18;23.80;99.90
18281;DHT22;9266;51.132;17.062;2023-06-04T08:20:47;24.70;99.90
18281;DHT22;9266;51.132;17.062;2023-06-04T08:23:14;25.10;99.90
18281;DHT22;9266;51.132;17.062;2023-06-04T08:25:41;25.00;99.90
18281;DHT22;9266;51.132;17.062;2023-06-04T08:28:08;25.40;99.90
18281;DHT22;9266;51.132;17.062;2023-06-04T08:30:35;25.20;99.90
18281;DHT22;9266;51.132;17.062;2023-06-04T08:33:02;24.00;99.90
18281;DHT22;9266;51.132;17.062;2023-06-04T08:35:29;23.60;99.90
18281;DHT22;9266;51.132;17.062;2023-06-04T08:37:58;24.20;99.90
18281;DHT22;9266;51.132;17.062;2023-06-04T08:40:25;24.60;99.90
18281;DHT22;9266;51.132;17.062;2023-06-04T08:42:54;24.40;99.90
18281;DHT22;9266;51.132;17.062;2023-06-04T08:45:24;24.10;99.90
18281;DHT22;9266;51.132;17.062;2023-06-04T08:47:53;24.20;99.90
18281;DHT22;9266;51.132;17.062;2023-06-04T08:50:21;24.40;99.90
18281;DHT22;9266;51.132;17.062;2023-06-04T08:52:52;24.50;99.90
18281;DHT22;9266;51.132;17.062;2023-06-04T08:55:22;24.30;99.90
18281;DHT22;9266;51.132;17.062;2023-06-04T08:57:50;24.10;99.90
18281;DHT22;9266;51.132;17.062;2023-06-04T09:00:18;23.50;99.90
18281;DHT22;9266;51.132;17.062;2023-06-04T09:02:46;24.10;99.90
18281;DHT22;9266;51.132;17.062;2023-06-04T09:05:19;23.40;99.90
18281;DHT22;9266;51.132;17.062;2023-06-04T09:07:47;23.10;99.90
18281;DHT22;9266;51.132;17.062;2023-06-04T09:10:18;23.00;99.90
18281;DHT22;9266;51.132;17.062;2023-06-04T09:12:47;23.80;99.90
18281;DHT22;9266;51.132;17.062;2023-06-04T09:15:16;24.10;99.90
18281;DHT22;9266;51.132;17.062;2023-06-04T09:17:43;23.90;99.90
18281;DHT22;9266;51.132;17.062;2023-06-04T09:20:18;23.20;99.90
18281;DHT22;9266;51.132;17.062;2023-06-04T09:22:45;23.10;99.90
18281;DHT22;9266;51.132;17.062;2023-06-04T09:25:20;23.10;99.90
18281;DHT22;9266;51.132;17.062;2023-06-04T09:27:49;23.00;99.90
18281;DHT22;9266;51.132;17.062;2023-06-04T09:30:16;22.90;99.90
18281;DHT22;9266;51.132;17.062;2023-06-04T09:32:43;22.70;99.90
18281;DHT22;9266;51.132;17.062;2023-06-04T09:35:11;22.20;99.90
18281;DHT22;9266;51.132;17.062;2023-06-04T09:37:40;21.20;99.90
18281;DHT22;9266;51.132;17.062;2023-06-04T09:40:08;20.90;99.90
18281;DHT22;9266;51.132;17.062;2023-06-04T09:42:45;20.80;99.90
18281;DHT22;9266;51.132;17.062;2023-06-04T09:45:26;20.90;99.90
18281;DHT22;9266;51.132;17.062;2023-06-04T09:47:53;20.70;99.90
18281;DHT22;9266;51.132;17.062;2023-06-04T09:50:25;20.60;99.90
18281;DHT22;9266;51.132;17.062;2023-06-04T09:52:52;20.40;99.90
18281;DHT22;9266;51.132;17.062;2023-06-04T09:55:19;20.60;99.90
18281;DHT22;9266;51.132;17.062;2023-06-04T09:57:49;20.20;99.90
18281;DHT22;9266;51.132;17.062;2023-06-04T10:00:18;20.70;99.90
18281;DHT22;9266;51.132;17.062;2023-06-04T10:02:47;21.00;99.90
18281;DHT22;9266;51.132;17.062;2023-06-04T10:05:15;21.30;99.90
18281;DHT22;9266;51.132;17.062;2023-06-04T10:07:46;20.90;99.90
18281;DHT22;9266;51.132;17.062;2023-06-04T10:10:15;20.50;99.90
18281;DHT22;9266;51.132;17.062;2023-06-04T10:12:42;20.30;99.90
18281;DHT22;9266;51.132;17.062;2023-06-04T10:15:11;20.50;99.90
18281;DHT22;9266;51.132;17.062;2023-06-04T10:17:40;20.60;99.90
18281;DHT22;9266;51.132;17.062;2023-06-04T10:20:08;20.80;99.90
18281;DHT22;9266;51.132;17.062;2023-06-04T10:22:36;21.20;99.90
18281;DHT22;9266;51.132;17.062;2023-06-04T10:25:03;21.20;99.90
18281;DHT22;9266;51.132;17.062;2023-06-04T10:27:31;20.90;99.90
18281;DHT22;9266;51.132;17.062;2023-06-04T10:30:01;21.00;99.90
18281;DHT22;9266;51.132;17.062;2023-06-04T10:32:28;21.10;99.90
18281;DHT22;9266;51.132;17.062;2023-06-04T10:34:57;21.40;99.90
18281;DHT22;9266;51.132;17.062;2023-06-04T10:37:25;21.30;99.90
18281;DHT22;9266;51.132;17.062;2023-06-04T10:39:56;21.20;99.90
18281;DHT22;9266;51.132;17.062;2023-06-04T10:42:24;20.90;99.90
18281;DHT22;9266;51.132;17.062;2023-06-04T10:44:53;20.60;99.90
18281;DHT22;9266;51.132;17.062;2023-06-04T10:47:21;20.10;99.90
18281;DHT22;9266;51.132;17.062;2023-06-04T10:49:49;20.20;99.90
18281;DHT22;9266;51.132;17.062;2023-06-04T10:52:18;20.30;99.90
18281;DHT22;9266;51.132;17.062;2023-06-04T10:54:46;20.30;99.90
18281;DHT22;9266;51.132;17.062;2023-06-04T10:57:15;20.50;99.90
18281;DHT22;9266;51.132;17.062;2023-06-04T10:59:53;20.70;99.90
18281;DHT22;9266;51.132;17.062;2023-06-04T11:02:21;21.00;99.90
18281;DHT22;9266;51.132;17.062;2023-06-04T11:04:59;21.50;99.90
18281;DHT22;9266;51.132;17.062;2023-06-04T11:07:40;21.50;99.90
18281;DHT22;9266;51.132;17.062;2023-06-04T11:10:09;21.70;99.90
18281;DHT22;9266;51.132;17.062;2023-06-04T11:12:43;21.70;99.90
18281;DHT22;9266;51.132;17.062;2023-06-04T11:15:11;21.70;99.90
18281;DHT22;9266;51.132;17.062;2023-06-04T11:17:43;21.30;99.90
18281;DHT22;9266;51.132;17.062;2023-06-04T11:20:16;21.20;99.90
18281;DHT22;9266;51.132;17.062;2023-06-04T11:22:51;21.00;99.90
18281;DHT22;9266;51.132;17.062;2023-06-04T11:25:19;21.00;99.90
18281;DHT22;9266;51.132;17.062;2023-06-04T11:27:48;20.90;99.90
18281;DHT22;9266;51.132;17.062;2023-06-04T11:30:15;21.00;99.90
18281;DHT22;9266;51.132;17.062;2023-06-04T11:32:42;20.80;99.90
18281;DHT22;9266;51.132;17.062;2023-06-04T11:35:10;20.80;99.90
18281;DHT22;9266;51.132;17.062;2023-06-04T11:37:38;21.00;99.90
18281;DHT22;9266;51.132;17.062;2023-06-04T11:40:16;21.00;99.90
18281;DHT22;9266;51.132;17.062;2023-06-04T11:42:44;21.30;99.90
18281;DHT22;9266;51.132;17.062;2023-06-04T11:45:13;21.30;99.90
18281;DHT22;9266;51.132;17.062;2023-06-04T11:47:41;21.60;99.90
18281;DHT22;9266;51.132;17.062;2023-06-04T11:50:09;21.60;99.90
18281;DHT22;9266;51.132;17.062;2023-06-04T11:52:37;21.60;99.90
18281;DHT22;9266;51.132;17.062;2023-06-04T11:55:05;21.20;99.90
18281;DHT22;9266;51.132;17.062;2023-06-04T11:57:36;21.30;99.90
18281;DHT22;9266;51.132;17.062;2023-06-04T12:00:04;21.30;99.90
18281;DHT22;9266;51.132;17.062;2023-06-04T12:02:34;21.20;99.90
18281;DHT22;9266;51.132;17.062;2023-06-04T12:05:11;21.10;99.90
18281;DHT22;9266;51.132;17.062;2023-06-04T12:07:38;21.10;99.90
18281;DHT22;9266;51.132;17.062;2023-06-04T12:10:06;21.40;99.90
18281;DHT22;9266;51.132;17.062;2023-06-04T12:12:34;21.60;99.90
18281;DHT22;9266;51.132;17.062;2023-06-04T12:15:01;21.70;99.90
18281;DHT22;9266;51.132;17.062;2023-06-04T12:17:31;21.80;99.90
18281;DHT22;9266;51.132;17.062;2023-06-04T12:19:58;21.70;99.90
18281;DHT22;9266;51.132;17.062;2023-06-04T12:22:26;21.90;99.90
18281;DHT22;9266;51.132;17.062;2023-06-04T12:24:54;21.80;99.90
18281;DHT22;9266;51.132;17.062;2023-06-04T12:27:22;22.10;99.90
18281;DHT22;9266;51.132;17.062;2023-06-04T12:29:57;22.20;99.90
18281;DHT22;9266;51.132;17.062;2023-06-04T12:32:25;22.30;99.90
18281;DHT22;9266;51.132;17.062;2023-06-04T12:34:52;22.20;99.90
18281;DHT22;9266;51.132;17.062;2023-06-04T12:37:20;21.90;99.90
18281;DHT22;9266;51.132;17.062;2023-06-04T12:39:47;21.80;99.90
18281;DHT22;9266;51.132;17.062;2023-06-04T12:42:14;21.60;99.90
18281;DHT22;9266;51.132;17.062;2023-06-04T12:44:41;21.70;99.90
18281;DHT22;9266;51.132;17.062;2023-06-04T12:47:10;21.50;99.90
18281;DHT22;9266;51.132;17.062;2023-06-04T12:49:37;21.60;99.90
18281;DHT22;9266;51.132;17.062;2023-06-04T12:52:05;21.60;99.90
18281;DHT22;9266;51.132;17.062;2023-06-04T12:54:32;21.50;99.90
18281;DHT22;9266;51.132;17.062;2023-06-04T12:57:00;21.70;99.90
18281;DHT22;9266;51.132;17.062;2023-06-04T12:59:27;21.70;99.90
18281;DHT22;9266;51.132;17.062;2023-06-04T13:01:55;21.70;99.90
18281;DHT22;9266;51.132;17.062;2023-06-04T13:04:23;21.40;99.90
18281;DHT22;9266;51.132;17.062;2023-06-04T13:06:50;21.60;99.90
18281;DHT22;9266;51.132;17.062;2023-06-04T13:09:21;21.80;99.90
18281;DHT22;9266;51.132;17.062;2023-06-04T13:11:48;21.80;99.90
18281;DHT22;9266;51.132;17.062;2023-06-04T13:14:15;21.90;99.90
18281;DHT22;9266;51.132;17.062;2023-06-04T13:16:42;21.70;99.90
18281;DHT22;9266;51.132;17.062;2023-06-04T13:19:12;22.00;99.90
18281;DHT22;9266;51.132;17.062;2023-06-04T13:21:40;22.00;99.90
18281;DHT22;9266;51.132;17.062;2023-06-04T13:24:10;21.90;99.90
18281;DHT22;9266;51.132;17.062;2023-06-04T13:26:37;21.90;99.90
18281;DHT22;9266;51.132;17.062;2023-06-04T13:29:07;22.00;99.90
18281;DHT22;9266;51.132;17.062;2023-06-04T13:31:34;22.10;99.90
18281;DHT22;9266;51.132;17.062;2023-06-04T13:34:01;22.10;99.90
18281;DHT22;9266;51.132;17.062;2023-06-04T13:36:28;22.20;99.90
18281;DHT22;9266;51.132;17.062;2023-06-04T13:38:57;22.30;99.90
18281;DHT22;9266;51.132;17.062;2023-06-04T13:41:24;22.30;99.90
18281;DHT22;9266;51.132;17.062;2023-06-04T13:43:52;22.30;99.90
18281;DHT22;9266;51.132;17.062;2023-06-04T13:46:19;22.40;99.90
18281;DHT22;9266;51.132;17.062;2023-06-04T13:48:46;22.50;99.90
18281;DHT22;9266;51.132;17.062;2023-06-04T13:51:13;22.30;99.90
18281;DHT22;9266;51.132;17.062;2023-06-04T13:53:40;22.30;99.90
18281;DHT22;9266;51.132;17.062;2023-06-04T13:56:08;22.10;99.90
18281;DHT22;9266;51.132;17.062;2023-06-04T13:58:35;22.10;99.90
18281;DHT22;9266;51.132;17.062;2023-06-04T14:01:02;22.20;99.90
18281;DHT22;9266;51.132;17.062;2023-06-04T14:03:29;22.20;99.90
18281;DHT22;9266;51.132;17.062;2023-06-04T14:05:56;22.20;99.90
18281;DHT22;9266;51.132;17.062;2023-06-04T14:08:23;22.30;99.90
18281;DHT22;9266;51.132;17.062;2023-06-04T14:10:50;22.20;99.90
18281;DHT22;9266;51.132;17.062;2023-06-04T14:13:19;22.20;99.90
18281;DHT22;9266;51.132;17.062;2023-06-04T14:15:46;22.00;99.90
18281;DHT22;9266;51.132;17.062;2023-06-04T14:18:12;21.70;99.90
18281;DHT22;9266;51.132;17.062;2023-06-04T14:20:40;21.80;99.90
18281;DHT22;9266;51.132;17.062;2023-06-04T14:23:07;22.10;99.90
18281;DHT22;9266;51.132;17.062;2023-06-04T14:25:34;22.30;99.90
18281;DHT22;9266;51.132;17.062;2023-06-04T14:28:02;22.40;99.90
18281;DHT22;9266;51.132;17.062;2023-06-04T14:30:30;22.40;99.90
18281;DHT22;9266;51.132;17.062;2023-06-04T14:32:57;22.20;99.90
18281;DHT22;9266;51.132;17.062;2023-06-04T14:35:24;22.10;99.90
18281;DHT22;9266;51.132;17.062;2023-06-04T14:37:51;22.20;99.90
18281;DHT22;9266;51.132;17.062;2023-06-04T14:40:18;22.10;99.90
18281;DHT22;9266;51.132;17.062;2023-06-04T14:42:45;22.30;99.90
18281;DHT22;9266;51.132;17.062;2023-06-04T14:45:12;22.50;99.90
18281;DHT22;9266;51.132;17.062;2023-06-04T14:47:40;22.50;99.90
18281;DHT22;9266;51.132;17.062;2023-06-04T14:50:08;22.10;99.90
18281;DHT22;9266;51.132;17.062;2023-06-04T14:52:35;22.20;99.90
18281;DHT22;9266;51.132;17.062;2023-06-04T14:55:02;22.40;99.90
18281;DHT22;9266;51.132;17.062;2023-06-04T14:57:29;22.50;99.90
18281;DHT22;9266;51.132;17.062;2023-06-04T14:59:57;22.50;99.90
18281;DHT22;9266;51.132;17.062;2023-06-04T15:02:24;22.20;99.90
18281;DHT22;9266;51.132;17.062;2023-06-04T15:04:53;22.20;99.90
18281;DHT22;9266;51.132;17.062;2023-06-04T15:07:20;22.30;99.90
18281;DHT22;9266;51.132;17.062;2023-06-04T15:09:47;22.30;99.90
18281;DHT22;9266;51.132;17.062;2023-06-04T15:12:14;22.50;99.90
18281;DHT22;9266;51.132;17.062;2023-06-04T15:14:42;22.80;99.90
18281;DHT22;9266;51.132;17.062;2023-06-04T15:17:09;22.90;99.90
18281;DHT22;9266;51.132;17.062;2023-06-04T15:19:36;22.90;99.90
18281;DHT22;9266;51.132;17.062;2023-06-04T15:22:05;22.70;99.90
18281;DHT22;9266;51.132;17.062;2023-06-04T15:24:32;22.70;99.90
18281;DHT22;9266;51.132;17.062;2023-06-04T15:26:59;22.70;99.90
18281;DHT22;9266;51.132;17.062;2023-06-04T15:29:26;22.80;99.90
18281;DHT22;9266;51.132;17.062;2023-06-04T15:31:53;22.70;99.90
18281;DHT22;9266;51.132;17.062;2023-06-04T15:34:20;22.70;99.90
18281;DHT22;9266;51.132;17.062;2023-06-04T15:36:48;22.70;99.90
18281;DHT22;9266;51.132;17.062;2023-06-04T15:39:17;22.70;99.90
18281;DHT22;9266;51.132;17.062;2023-06-04T15:41:44;22.80;99.90
18281;DHT22;9266;51.132;17.062;2023-06-04T15:44:11;22.80;99.90